createdAt,value
2018-11-02T00:02:23.593Z,2.30
2018-11-02T00:04:52.184Z,2.70
2018-11-02T00:07:21.211Z,2.67
2018-11-02T00:09:50.199Z,2.50
2018-11-02T00:12:18.446Z,2.20
2018-11-02T00:14:46.494Z,2.90
2018-11-02T00:17:14.654Z,2.43
2018-11-02T00:19:43.031Z,2.40
2018-11-02T00:22:10.947Z,2.43
2018-11-02T00:24:39.653Z,2.10
2018-11-02T00:27:08.501Z,2.47
2018-11-02T00:29:36.723Z,2.60
2018-11-02T00:32:05.312Z,2.60
2018-11-02T00:34:33.892Z,3.10
2018-11-02T00:37:02.535Z,2.70
2018-11-02T00:39:31.480Z,3.90
2018-11-02T00:41:59.630Z,3.47
2018-11-02T00:44:28.339Z,3.63
2018-11-02T00:46:56.535Z,3.43
2018-11-02T00:49:24.563Z,3.80
2018-11-02T00:51:52.702Z,3.93
2018-11-02T00:54:21.263Z,3.90
2018-11-02T00:56:49.288Z,4.37
2018-11-02T00:59:17.797Z,4.13
2018-11-02T01:01:46.843Z,4.83
2018-11-02T01:04:15.229Z,4.10
2018-11-02T01:06:43.508Z,4.20
2018-11-02T01:09:11.998Z,3.80
2018-11-02T01:11:40.094Z,4.33
2018-11-02T01:14:08.489Z,4.60
2018-11-02T01:16:36.588Z,4.67
2018-11-02T01:19:04.871Z,4.60
2018-11-02T01:21:32.914Z,4.40
2018-11-02T01:24:01.078Z,4.80
2018-11-02T01:26:29.550Z,4.70
2018-11-02T01:28:57.553Z,4.97
2018-11-02T01:31:26.475Z,4.77
2018-11-02T01:33:55.288Z,4.30
2018-11-02T01:36:24.153Z,4.60
2018-11-02T01:38:53.250Z,3.80
2018-11-02T01:41:22.409Z,3.90
2018-11-02T01:43:50.599Z,4.00
2018-11-02T01:46:19.361Z,3.93
2018-11-02T01:48:47.376Z,3.97
2018-11-02T01:51:15.875Z,4.00
2018-11-02T01:53:45.934Z,4.20
2018-11-02T01:56:14.097Z,4.27
2018-11-02T01:58:42.277Z,4.10
2018-11-02T02:01:10.538Z,5.00
2018-11-02T02:03:39.109Z,5.30
2018-11-02T02:06:08.099Z,5.03
2018-11-02T02:08:36.078Z,5.60
2018-11-02T02:11:04.693Z,7.20
2018-11-02T02:13:32.910Z,6.70
2018-11-02T02:16:01.743Z,7.33
2018-11-02T02:18:30.379Z,7.47
2018-11-02T02:20:59.626Z,7.43
2018-11-02T02:23:27.550Z,5.50
2018-11-02T02:25:55.854Z,6.50
2018-11-02T02:28:24.117Z,6.77
2018-11-02T02:30:52.902Z,5.53
2018-11-02T02:33:21.936Z,4.97
2018-11-02T02:35:50.300Z,5.77
2018-11-02T02:38:18.302Z,5.73
2018-11-02T02:40:46.957Z,6.27
2018-11-02T02:43:15.932Z,5.27
2018-11-02T02:45:44.095Z,6.47
2018-11-02T02:48:12.916Z,7.27
2018-11-02T02:50:41.434Z,7.43
2018-11-02T02:53:09.450Z,7.07
2018-11-02T02:55:37.353Z,6.40
2018-11-02T02:58:05.292Z,6.33
2018-11-02T03:00:33.449Z,6.17
2018-11-02T03:03:01.630Z,5.20
2018-11-02T03:05:29.525Z,6.93
2018-11-02T03:07:58.282Z,6.57
2018-11-02T03:10:26.529Z,5.27
2018-11-02T03:12:54.634Z,4.60
2018-11-02T03:15:22.529Z,5.00
2018-11-02T03:17:51.411Z,5.60
2018-11-02T03:20:19.388Z,4.47
2018-11-02T03:22:48.194Z,5.10
2018-11-02T03:25:16.166Z,4.60
2018-11-02T03:27:44.635Z,5.63
2018-11-02T03:30:12.987Z,7.60
2018-11-02T03:32:41.378Z,7.00
2018-11-02T03:35:10.070Z,6.97
2018-11-02T03:37:39.173Z,5.43
2018-11-02T03:40:09.154Z,6.47
2018-11-02T03:42:37.462Z,6.53
2018-11-02T03:45:06.456Z,7.70
2018-11-02T03:47:35.548Z,7.53
2018-11-02T03:50:03.479Z,7.37
2018-11-02T03:52:31.465Z,7.57
2018-11-02T03:55:00.040Z,6.67
2018-11-02T03:57:28.202Z,6.27
2018-11-02T03:59:56.377Z,5.17
2018-11-02T04:02:24.550Z,5.67
2018-11-02T04:04:53.086Z,7.40
2018-11-02T04:07:22.218Z,6.20
2018-11-02T04:09:51.349Z,7.60
2018-11-02T04:12:19.489Z,7.23
2018-11-02T04:14:47.823Z,6.67
2018-11-02T04:17:16.246Z,6.63
2018-11-02T04:19:44.389Z,7.07
2018-11-02T04:22:12.549Z,7.20
2018-11-02T04:24:40.693Z,6.90
2018-11-02T04:27:09.774Z,7.07
2018-11-02T04:29:37.911Z,5.73
2018-11-02T04:32:06.093Z,5.33
2018-11-02T04:34:34.242Z,5.47
2018-11-02T04:37:02.926Z,5.83
2018-11-02T04:39:31.319Z,6.20
2018-11-02T04:41:59.242Z,5.70
2018-11-02T04:44:27.349Z,5.77
2018-11-02T04:46:56.488Z,6.33
2018-11-02T04:49:25.331Z,4.60
2018-11-02T04:51:53.265Z,5.07
2018-11-02T04:54:21.541Z,5.37
2018-11-02T04:56:50.481Z,5.40
2018-11-02T04:59:19.113Z,5.43
2018-11-02T05:01:47.331Z,5.60
2018-11-02T05:04:16.105Z,5.73
2018-11-02T05:06:44.582Z,6.07
2018-11-02T05:09:12.533Z,5.93
2018-11-02T05:11:41.168Z,5.60
2018-11-02T05:14:10.591Z,5.93
2018-11-02T05:16:38.770Z,5.90
2018-11-02T05:19:06.831Z,5.63
2018-11-02T05:21:34.781Z,5.33
2018-11-02T05:24:03.696Z,5.00
2018-11-02T05:26:32.812Z,4.53
2018-11-02T05:29:00.760Z,4.27
2018-11-02T05:31:29.413Z,5.73
2018-11-02T05:33:57.452Z,5.77
2018-11-02T05:36:25.585Z,4.20
2018-11-02T05:38:53.733Z,4.90
2018-11-02T05:41:22.311Z,4.50
2018-11-02T05:43:51.010Z,4.30
2018-11-02T05:46:19.122Z,4.07
2018-11-02T05:48:47.048Z,4.20
2018-11-02T05:51:14.950Z,3.77
2018-11-02T05:53:43.227Z,4.07
2018-11-02T05:56:11.436Z,4.70
2018-11-02T05:58:39.939Z,4.10
2018-11-02T06:01:08.344Z,3.73
2018-11-02T06:03:36.479Z,4.27
2018-11-02T06:06:05.337Z,3.60
2018-11-02T06:08:34.159Z,3.70
2018-11-02T06:11:03.073Z,3.83
2018-11-02T06:13:31.129Z,3.97
2018-11-02T06:15:59.016Z,3.40
2018-11-02T06:18:26.908Z,3.87
2018-11-02T06:20:54.817Z,3.80
2018-11-02T06:23:22.947Z,4.10
2018-11-02T06:25:50.852Z,3.93
2018-11-02T06:28:19.002Z,4.30
2018-11-02T06:30:47.844Z,3.57
2018-11-02T06:33:16.860Z,3.37
2018-11-02T06:35:45.329Z,3.77
2018-11-02T06:38:13.488Z,4.10
2018-11-02T06:40:41.393Z,4.13
2018-11-02T06:43:10.080Z,4.00
2018-11-02T06:45:38.202Z,4.13
2018-11-02T06:48:06.996Z,4.50
2018-11-02T06:50:35.176Z,5.20
2018-11-02T06:53:03.947Z,5.70
2018-11-02T06:55:32.795Z,5.93
2018-11-02T06:58:01.287Z,6.20
2018-11-02T07:00:29.973Z,5.73
2018-11-02T07:02:58.394Z,6.13
2018-11-02T07:05:27.722Z,7.00
2018-11-02T07:07:55.930Z,6.87
2018-11-02T07:10:23.940Z,6.97
2018-11-02T07:12:53.078Z,7.67
2018-11-02T07:15:21.705Z,7.13
2018-11-02T07:17:50.837Z,6.63
2018-11-02T07:20:18.758Z,6.50
2018-11-02T07:22:46.665Z,7.63
2018-11-02T07:25:15.471Z,7.53
2018-11-02T07:27:43.409Z,6.90
2018-11-02T07:30:11.769Z,7.50
2018-11-02T07:32:40.470Z,8.33
2018-11-02T07:35:09.532Z,8.23
2018-11-02T07:37:38.120Z,8.00
2018-11-02T07:40:07.643Z,7.80
2018-11-02T07:42:35.825Z,7.37
2018-11-02T07:45:04.503Z,8.07
2018-11-02T07:47:32.625Z,7.37
2018-11-02T07:50:01.170Z,8.23
2018-11-02T07:52:29.484Z,8.03
2018-11-02T07:54:57.361Z,8.23
2018-11-02T07:57:25.274Z,9.10
2018-11-02T07:59:53.433Z,9.57
2018-11-02T08:02:21.580Z,7.70
2018-11-02T08:04:50.537Z,7.77
2018-11-02T08:07:19.015Z,7.97
2018-11-02T08:09:47.337Z,8.93
2018-11-02T08:12:15.444Z,8.80
2018-11-02T08:14:44.023Z,8.83
2018-11-02T08:17:12.942Z,8.73
2018-11-02T08:19:41.731Z,9.30
2018-11-02T08:22:10.517Z,8.70
2018-11-02T08:24:39.173Z,9.20
2018-11-02T08:27:07.441Z,10.07
2018-11-02T08:29:35.833Z,10.20
2018-11-02T08:32:04.549Z,11.67
2018-11-02T08:34:38.624Z,11.37
2018-11-02T08:37:06.698Z,10.50
2018-11-02T08:39:35.788Z,9.60
2018-11-02T08:42:04.401Z,9.83
2018-11-02T08:44:32.546Z,9.03
2018-11-02T08:47:00.456Z,13.50
2018-11-02T08:49:28.602Z,9.90
2018-11-02T08:51:56.982Z,9.07
2018-11-02T08:54:24.868Z,8.73
2018-11-02T08:56:53.024Z,8.27
2018-11-02T08:59:21.086Z,7.10
2018-11-02T09:01:49.059Z,8.43
2018-11-02T09:04:17.317Z,7.90
2018-11-02T09:06:46.662Z,7.50
2018-11-02T09:09:15.066Z,8.23
2018-11-02T09:11:43.466Z,8.87
2018-11-02T09:14:12.366Z,8.23
2018-11-02T09:16:40.655Z,7.92
2018-11-02T09:19:09.541Z,8.60
2018-11-02T09:21:37.639Z,8.50
2018-11-02T09:24:06.163Z,8.40
2018-11-02T09:26:34.278Z,9.90
2018-11-02T09:29:02.436Z,8.73
2018-11-02T09:31:30.556Z,7.53
2018-11-02T09:33:59.752Z,8.37
2018-11-02T09:36:27.869Z,7.77
2018-11-02T09:38:56.651Z,8.60
2018-11-02T09:41:24.842Z,7.90
2018-11-02T09:43:53.262Z,7.73
2018-11-02T09:46:21.478Z,7.73
2018-11-02T09:48:49.967Z,7.50
2018-11-02T09:51:18.175Z,7.73
2018-11-02T09:53:46.282Z,7.80
2018-11-02T09:56:14.481Z,9.30
2018-11-02T09:58:43.254Z,8.53
2018-11-02T10:01:11.870Z,9.00
2018-11-02T10:03:40.532Z,9.53
2018-11-02T10:06:08.686Z,8.73
2018-11-02T10:08:37.341Z,8.20
2018-11-02T10:11:05.237Z,9.07
2018-11-02T10:13:33.316Z,9.73
2018-11-02T10:16:02.022Z,9.73
2018-11-02T10:18:30.847Z,9.50
2018-11-02T10:20:59.329Z,9.50
2018-11-02T10:23:28.098Z,9.23
2018-11-02T10:25:56.126Z,8.87
2018-11-02T10:28:24.772Z,8.33
2018-11-02T10:30:52.909Z,7.73
2018-11-02T10:33:21.048Z,7.40
2018-11-02T10:35:50.019Z,7.37
2018-11-02T10:38:18.110Z,7.10
2018-11-02T10:40:47.897Z,7.13
2018-11-02T10:43:17.646Z,7.73
2018-11-02T10:45:46.461Z,7.20
2018-11-02T10:48:14.810Z,6.87
2018-11-02T10:50:42.918Z,7.63
2018-11-02T10:53:11.042Z,7.30
2018-11-02T10:55:40.414Z,7.13
2018-11-02T10:58:09.565Z,6.53
2018-11-02T11:00:43.122Z,6.17
2018-11-02T11:03:12.054Z,6.73
2018-11-02T11:05:40.189Z,7.37
2018-11-02T11:08:08.321Z,7.40
2018-11-02T11:10:36.445Z,6.30
2018-11-02T11:13:05.596Z,5.97
2018-11-02T11:15:33.735Z,6.47
2018-11-02T11:18:01.910Z,6.00
2018-11-02T11:20:30.042Z,5.87
2018-11-02T11:22:58.393Z,6.17
2018-11-02T11:25:26.517Z,5.67
2018-11-02T11:27:55.001Z,5.30
2018-11-02T11:30:22.889Z,5.27
2018-11-02T11:32:51.745Z,5.20
2018-11-02T11:35:20.065Z,5.70
2018-11-02T11:37:48.198Z,5.27
2018-11-02T11:40:17.876Z,6.40
2018-11-02T11:42:45.787Z,5.20
2018-11-02T11:45:15.449Z,5.40
2018-11-02T11:47:44.358Z,4.63
2018-11-02T11:50:20.250Z,3.00
2018-11-02T11:52:49.249Z,2.90
2018-11-02T11:55:17.697Z,2.50
2018-11-02T11:57:46.138Z,3.10
2018-11-02T12:00:16.276Z,3.63
2018-11-02T12:02:45.181Z,1.80
2018-11-02T12:05:15.573Z,1.43
2018-11-02T12:07:43.813Z,1.63
2018-11-02T12:10:15.759Z,1.53
2018-11-02T12:12:44.056Z,1.50
2018-11-02T12:15:14.845Z,1.70
2018-11-02T12:17:43.453Z,2.37
2018-11-02T12:20:15.469Z,2.20
2018-11-02T12:22:44.257Z,2.30
2018-11-02T12:25:13.270Z,2.10
2018-11-02T12:27:41.602Z,2.17
2018-11-02T12:30:12.916Z,3.23
2018-11-02T12:32:40.939Z,2.53
2018-11-02T12:35:10.878Z,2.67
2018-11-02T12:37:39.793Z,2.20
2018-11-02T12:40:10.227Z,2.30
2018-11-02T12:42:39.163Z,2.27
2018-11-02T12:45:07.703Z,2.20
2018-11-02T12:47:35.853Z,3.30
2018-11-02T12:50:04.225Z,2.73
2018-11-02T12:52:32.329Z,2.30
2018-11-02T12:55:00.727Z,1.60
2018-11-02T12:57:29.744Z,2.07
2018-11-02T12:59:57.855Z,2.20
2018-11-02T13:02:25.766Z,2.23
2018-11-02T13:04:53.895Z,2.27
2018-11-02T13:07:22.273Z,2.20
2018-11-02T13:09:50.582Z,2.67
2018-11-02T13:12:18.713Z,2.50
2018-11-02T13:14:46.633Z,2.20
2018-11-02T13:17:14.881Z,3.77
2018-11-02T13:19:43.406Z,3.13
2018-11-02T13:22:11.817Z,3.40
2018-11-02T13:24:40.025Z,3.30
2018-11-02T13:27:08.917Z,2.90
2018-11-02T13:29:37.607Z,3.43
2018-11-02T13:32:05.854Z,3.80
2018-11-02T13:34:33.741Z,3.40
2018-11-02T13:37:02.335Z,3.63
2018-11-02T13:39:30.757Z,4.70
2018-11-02T13:41:59.358Z,3.50
2018-11-02T13:44:28.438Z,4.10
2018-11-02T13:46:56.805Z,3.00
2018-11-02T13:49:25.053Z,3.73
2018-11-02T13:51:53.432Z,3.30
2018-11-02T13:54:21.652Z,3.43
2018-11-02T13:56:49.870Z,3.33
2018-11-02T13:59:18.018Z,3.20
2018-11-02T14:01:46.132Z,3.17
2018-11-02T14:04:14.811Z,3.43
2018-11-02T14:06:42.966Z,3.20
2018-11-02T14:09:11.753Z,3.50
2018-11-02T14:11:40.004Z,3.40
2018-11-02T14:14:08.353Z,3.37
2018-11-02T14:16:36.970Z,3.27
2018-11-02T14:19:05.423Z,3.63
2018-11-02T14:21:33.646Z,4.33
2018-11-02T14:24:01.828Z,4.60
2018-11-02T14:26:30.045Z,5.23
2018-11-02T14:28:58.918Z,5.10
2018-11-02T14:31:27.455Z,3.93
2018-11-02T14:33:56.167Z,3.83
2018-11-02T14:36:24.779Z,2.93
2018-11-02T14:38:53.342Z,3.27
2018-11-02T14:41:21.569Z,3.20
2018-11-02T14:43:49.596Z,3.07
2018-11-02T14:46:17.778Z,2.80
2018-11-02T14:48:45.916Z,2.87
2018-11-02T14:51:14.056Z,2.57
2018-11-02T14:53:42.273Z,3.63
2018-11-02T14:56:11.144Z,3.67
2018-11-02T14:58:39.450Z,2.50
2018-11-02T15:01:07.580Z,3.13
2018-11-02T15:03:35.809Z,3.37
2018-11-02T15:06:04.792Z,2.97
2018-11-02T15:08:33.515Z,3.70
2018-11-02T15:11:01.745Z,3.47
2018-11-02T15:13:29.971Z,3.77
2018-11-02T15:15:58.758Z,3.60
2018-11-02T15:18:27.610Z,3.30
2018-11-02T15:20:55.761Z,3.90
2018-11-02T15:23:23.916Z,4.67
2018-11-02T15:25:52.123Z,3.97
2018-11-02T15:28:21.044Z,4.73
2018-11-02T15:30:48.979Z,4.60
2018-11-02T15:33:16.860Z,4.67
2018-11-02T15:35:45.011Z,4.10
2018-11-02T15:38:13.198Z,4.23
2018-11-02T15:40:41.850Z,4.00
2018-11-02T15:43:09.949Z,4.70
2018-11-02T15:45:38.725Z,4.27
2018-11-02T15:48:06.899Z,4.13
2018-11-02T15:50:35.034Z,4.17
2018-11-02T15:53:03.461Z,3.93
2018-11-02T15:55:31.777Z,3.97
2018-11-02T15:58:00.623Z,3.83
2018-11-02T16:00:28.818Z,4.40
2018-11-02T16:02:57.614Z,4.60
2018-11-02T16:05:26.341Z,3.73
2018-11-02T16:07:54.475Z,4.00
2018-11-02T16:10:23.277Z,4.40
2018-11-02T16:12:51.617Z,4.90
2018-11-02T16:15:20.405Z,4.70
2018-11-02T16:17:49.114Z,4.80
2018-11-02T16:20:17.034Z,4.97
2018-11-02T16:22:45.603Z,5.03
2018-11-02T16:25:14.046Z,5.30
2018-11-02T16:27:42.473Z,4.50
2018-11-02T16:30:11.266Z,5.60
2018-11-02T16:32:39.045Z,5.13
2018-11-02T16:35:07.309Z,4.43
2018-11-02T16:37:35.967Z,4.20
2018-11-02T16:40:05.778Z,4.30
2018-11-02T16:42:33.893Z,4.00
2018-11-02T16:45:02.006Z,4.30
2018-11-02T16:47:30.126Z,4.60
2018-11-02T16:49:58.747Z,6.50
2018-11-02T16:52:27.419Z,4.70
2018-11-02T16:54:55.376Z,4.60
2018-11-02T16:57:23.308Z,6.53
2018-11-02T16:59:52.388Z,7.10
2018-11-02T17:02:21.436Z,7.47
2018-11-02T17:04:49.387Z,6.03
2018-11-02T17:07:18.186Z,6.07
2018-11-02T17:09:46.599Z,5.40
2018-11-02T17:12:14.753Z,8.43
2018-11-02T17:14:43.724Z,7.57
2018-11-02T17:17:12.178Z,8.00
2018-11-02T17:19:40.309Z,9.43
2018-11-02T17:22:08.431Z,8.10
2018-11-02T17:24:36.558Z,6.43
2018-11-02T17:27:04.937Z,5.23
2018-11-02T17:29:33.082Z,7.87
2018-11-02T17:32:01.949Z,18.47
2018-11-02T17:34:30.578Z,12.70
2018-11-02T17:36:58.867Z,10.47
2018-11-02T17:39:27.282Z,11.17
2018-11-02T17:41:55.525Z,7.73
2018-11-02T17:44:23.669Z,7.87
2018-11-02T17:46:51.968Z,9.80
2018-11-02T17:49:20.421Z,11.47
2018-11-02T17:51:48.594Z,15.40
2018-11-02T17:54:16.885Z,13.00
2018-11-02T17:56:46.217Z,11.33
2018-11-02T17:59:14.412Z,9.73
2018-11-02T18:01:42.498Z,9.30
2018-11-02T18:04:11.132Z,8.37
2018-11-02T18:06:39.320Z,8.10
2018-11-02T18:09:09.363Z,8.27
2018-11-02T18:11:37.572Z,7.63
2018-11-02T18:14:06.522Z,8.40
2018-11-02T18:16:34.717Z,11.00
2018-11-02T18:19:02.854Z,11.10
2018-11-02T18:21:31.370Z,13.57
2018-11-02T18:23:59.405Z,19.13
2018-11-02T18:26:27.329Z,14.90
2018-11-02T18:28:55.423Z,13.43
2018-11-02T18:31:23.614Z,13.67
2018-11-02T18:33:52.722Z,13.33
2018-11-02T18:36:20.673Z,16.33
2018-11-02T18:38:48.847Z,18.23
2018-11-02T18:41:17.546Z,17.03
2018-11-02T18:43:45.726Z,17.97
2018-11-02T18:46:14.582Z,21.20
2018-11-02T18:48:43.575Z,29.57
2018-11-02T18:51:11.765Z,20.70
2018-11-02T18:53:39.985Z,19.17
2018-11-02T18:56:09.230Z,25.33
2018-11-02T18:58:37.350Z,18.27
2018-11-02T19:01:05.737Z,15.47
2018-11-02T19:03:33.901Z,12.60
2018-11-02T19:06:02.149Z,14.30
2018-11-02T19:08:30.851Z,14.77
2018-11-02T19:10:59.802Z,13.90
2018-11-02T19:13:28.089Z,13.00
2018-11-02T19:15:57.111Z,18.83
2018-11-02T19:18:25.474Z,12.17
2018-11-02T19:20:53.325Z,10.60
2018-11-02T19:23:21.249Z,14.00
2018-11-02T19:25:49.145Z,13.23
2018-11-02T19:28:17.413Z,13.57
2018-11-02T19:30:45.551Z,12.97
2018-11-02T19:33:13.686Z,11.20
2018-11-02T19:35:41.815Z,11.40
2018-11-02T19:38:09.843Z,11.63
2018-11-02T19:40:37.756Z,12.37
2018-11-02T19:43:05.892Z,11.77
2018-11-02T19:45:34.009Z,11.33
2018-11-02T19:48:03.316Z,10.80
2018-11-02T19:50:31.705Z,10.13
2018-11-02T19:52:59.799Z,9.70
2018-11-02T19:55:28.013Z,10.17
2018-11-02T19:57:56.760Z,10.40
2018-11-02T20:00:24.926Z,12.23
2018-11-02T20:02:53.078Z,12.80
2018-11-02T20:05:21.603Z,13.00
2018-11-02T20:07:49.754Z,12.27
2018-11-02T20:10:19.204Z,12.87
2018-11-02T20:12:47.909Z,13.27
2018-11-02T20:15:16.898Z,12.90
2018-11-02T20:17:44.873Z,13.97
2018-11-02T20:20:14.678Z,13.87
2018-11-02T20:22:42.809Z,15.67
2018-11-02T20:25:14.533Z,16.77
2018-11-02T20:27:43.578Z,13.50
2018-11-02T20:30:13.711Z,12.90
2018-11-02T20:32:42.731Z,11.70
2018-11-02T20:35:11.631Z,12.97
2018-11-02T20:37:40.185Z,14.20
2018-11-02T20:40:11.684Z,13.63
2018-11-02T20:42:39.623Z,13.37
2018-11-02T20:45:07.782Z,11.77
2018-11-02T20:47:41.666Z,12.27
2018-11-02T20:50:11.195Z,18.30
2018-11-02T20:52:39.649Z,24.73
2018-11-02T20:55:08.675Z,41.10
2018-11-02T20:57:38.542Z,15.00
2018-11-02T21:00:10.042Z,13.87
2018-11-02T21:02:38.291Z,13.80
2018-11-02T21:05:07.926Z,15.00
2018-11-02T21:07:36.068Z,16.00
2018-11-02T21:10:06.247Z,13.47
2018-11-02T21:12:34.500Z,12.03
2018-11-02T21:15:03.793Z,12.93
2018-11-02T21:17:32.977Z,11.80
2018-11-02T21:20:01.693Z,12.63
2018-11-02T21:22:30.582Z,16.03
2018-11-02T21:24:59.767Z,13.90
2018-11-02T21:27:28.351Z,13.63
2018-11-02T21:29:56.987Z,12.90
2018-11-02T21:32:25.235Z,12.70
2018-11-02T21:34:54.046Z,12.50
2018-11-02T21:37:22.174Z,13.27
2018-11-02T21:39:50.082Z,11.97
2018-11-02T21:42:18.214Z,13.43
2018-11-02T21:44:46.382Z,12.57
2018-11-02T21:47:14.484Z,12.57
2018-11-02T21:49:42.677Z,12.63
2018-11-02T21:52:11.402Z,11.60
2018-11-02T21:54:39.851Z,11.43
2018-11-02T21:57:08.674Z,10.83
2018-11-02T21:59:37.601Z,11.20
2018-11-02T22:02:05.984Z,11.77
2018-11-02T22:04:34.086Z,11.93
2018-11-02T22:07:02.391Z,11.00
2018-11-02T22:09:31.472Z,12.60
2018-11-02T22:12:00.473Z,12.27
2018-11-02T22:14:29.151Z,14.00
2018-11-02T22:16:57.822Z,13.17
2018-11-02T22:19:26.662Z,14.43
2018-11-02T22:21:55.095Z,12.17
2018-11-02T22:24:23.406Z,11.40
2018-11-02T22:26:52.180Z,12.03
2018-11-02T22:29:20.444Z,12.33
2018-11-02T22:31:48.635Z,10.73
2018-11-02T22:34:16.775Z,11.60
2018-11-02T22:36:44.965Z,12.30
2018-11-02T22:39:13.228Z,11.30
2018-11-02T22:41:42.445Z,11.03
2018-11-02T22:44:10.404Z,10.47
2018-11-02T22:46:38.544Z,10.30
2018-11-02T22:49:06.703Z,11.03
2018-11-02T22:51:34.838Z,11.03
2018-11-02T22:54:03.837Z,10.30
2018-11-02T22:56:32.620Z,11.03
2018-11-02T22:59:00.743Z,11.23
2018-11-02T23:01:30.421Z,11.23
2018-11-02T23:03:59.831Z,11.43
2018-11-02T23:06:29.033Z,11.30
2018-11-02T23:08:57.209Z,10.93
2018-11-02T23:11:25.177Z,12.43
2018-11-02T23:13:53.390Z,12.27
2018-11-02T23:16:21.810Z,13.43
2018-11-02T23:18:50.114Z,13.20
2018-11-02T23:21:18.576Z,12.90
2018-11-02T23:23:46.927Z,13.10
2018-11-02T23:26:15.829Z,11.57
2018-11-02T23:28:43.982Z,13.10
2018-11-02T23:31:12.101Z,12.67
2018-11-02T23:33:41.174Z,13.10
2018-11-02T23:36:09.706Z,13.60
2018-11-02T23:38:37.967Z,12.63
2018-11-02T23:41:06.350Z,12.83
2018-11-02T23:43:35.490Z,13.60
2018-11-02T23:46:04.491Z,12.70
2018-11-02T23:48:33.393Z,14.13
2018-11-02T23:51:01.534Z,13.47
2018-11-02T23:53:29.460Z,14.37
2018-11-02T23:55:57.834Z,14.37
2018-11-02T23:58:26.434Z,14.37
